createdAt,value
2018-01-21T00:01:56.525Z,11.30
2018-01-21T00:04:23.982Z,8.37
2018-01-21T00:06:51.459Z,5.93
2018-01-21T00:09:18.920Z,12.27
2018-01-21T00:11:46.390Z,9.47
2018-01-21T00:14:14.638Z,13.40
2018-01-21T00:16:42.098Z,9.83
2018-01-21T00:19:09.565Z,11.53
2018-01-21T00:21:37.031Z,10.60
2018-01-21T00:24:05.258Z,10.43
2018-01-21T00:26:32.714Z,11.93
2018-01-21T00:29:00.193Z,12.47
2018-01-21T00:31:27.641Z,4.47
2018-01-21T00:33:55.107Z,11.10
2018-01-21T00:36:22.574Z,6.73
2018-01-21T00:38:50.022Z,8.47
2018-01-21T00:41:17.478Z,4.00
2018-01-21T00:43:44.951Z,14.33
2018-01-21T00:46:12.405Z,9.83
2018-01-21T00:48:39.864Z,8.03
2018-01-21T00:51:07.347Z,8.10
2018-01-21T00:53:34.836Z,8.60
2018-01-21T00:56:02.285Z,9.53
2018-01-21T00:58:29.755Z,9.87
2018-01-21T01:00:57.241Z,11.53
2018-01-21T01:03:24.698Z,7.67
2018-01-21T01:05:52.162Z,8.70
2018-01-21T01:08:19.625Z,12.53
2018-01-21T01:10:47.858Z,6.80
2018-01-21T01:13:15.327Z,3.20
2018-01-21T01:15:42.832Z,8.90
2018-01-21T01:18:11.054Z,9.00
2018-01-21T01:20:38.514Z,6.60
2018-01-21T01:23:05.978Z,10.77
2018-01-21T01:25:33.446Z,5.63
2018-01-21T01:28:00.905Z,8.77
2018-01-21T01:30:28.373Z,10.03
2018-01-21T01:32:56.615Z,17.57
2018-01-21T01:35:24.074Z,6.80
2018-01-21T01:37:51.546Z,12.67
2018-01-21T01:40:19.006Z,5.10
2018-01-21T01:42:46.461Z,3.57
2018-01-21T01:45:13.927Z,10.60
2018-01-21T01:47:41.382Z,8.57
2018-01-21T01:50:08.843Z,17.07
2018-01-21T01:52:36.310Z,6.70
2018-01-21T01:55:04.530Z,5.27
2018-01-21T01:57:31.982Z,8.73
2018-01-21T01:59:59.471Z,6.17
2018-01-21T02:02:26.923Z,10.03
2018-01-21T02:04:54.378Z,14.40
2018-01-21T02:07:21.873Z,10.63
2018-01-21T02:09:50.094Z,6.67
2018-01-21T02:12:17.537Z,6.97
2018-01-21T02:14:44.996Z,5.67
2018-01-21T02:17:12.444Z,12.73
2018-01-21T02:19:39.908Z,4.97
2018-01-21T02:22:07.369Z,7.73
2018-01-21T02:24:34.821Z,4.37
2018-01-21T02:27:02.269Z,8.07
2018-01-21T02:29:29.737Z,4.57
2018-01-21T02:31:57.185Z,6.27
2018-01-21T02:34:24.657Z,9.17
2018-01-21T02:36:52.131Z,7.93
2018-01-21T02:39:19.578Z,6.50
2018-01-21T02:41:47.039Z,4.63
2018-01-21T02:44:14.498Z,2.70
2018-01-21T02:46:41.950Z,7.47
2018-01-21T02:49:09.410Z,3.50
2018-01-21T02:51:36.909Z,6.53
2018-01-21T02:54:05.134Z,7.17
2018-01-21T02:56:32.586Z,6.90
2018-01-21T02:59:00.069Z,11.17
2018-01-21T03:01:27.517Z,13.43
2018-01-21T03:03:54.978Z,5.00
2018-01-21T03:06:22.443Z,4.23
2018-01-21T03:08:49.902Z,8.70
2018-01-21T03:11:17.358Z,4.57
2018-01-21T03:13:44.826Z,6.93
2018-01-21T03:16:13.109Z,3.77
2018-01-21T03:18:41.326Z,9.33
2018-01-21T03:21:09.699Z,4.10
2018-01-21T03:23:37.154Z,5.53
2018-01-21T03:26:04.618Z,4.67
2018-01-21T03:28:32.089Z,4.63
2018-01-21T03:30:59.560Z,6.53
2018-01-21T03:33:27.022Z,5.50
2018-01-21T03:35:54.500Z,10.33
2018-01-21T03:38:22.726Z,7.73
2018-01-21T03:40:50.953Z,5.50
2018-01-21T03:43:19.169Z,6.30
2018-01-21T03:45:46.642Z,3.00
2018-01-21T03:48:14.123Z,12.60
2018-01-21T03:50:41.573Z,9.57
2018-01-21T03:53:09.034Z,3.80
2018-01-21T03:55:36.493Z,6.10
2018-01-21T03:58:03.949Z,10.57
2018-01-21T04:00:31.402Z,9.37
2018-01-21T04:02:58.863Z,6.50
2018-01-21T04:05:26.315Z,9.07
2018-01-21T04:07:53.780Z,7.80
2018-01-21T04:10:21.239Z,4.30
2018-01-21T04:12:49.461Z,3.07
2018-01-21T04:15:16.943Z,5.83
2018-01-21T04:17:44.402Z,8.27
2018-01-21T04:20:11.856Z,3.93
2018-01-21T04:22:39.314Z,4.17
2018-01-21T04:25:06.782Z,5.90
2018-01-21T04:27:34.243Z,12.93
2018-01-21T04:30:01.710Z,10.87
2018-01-21T04:32:29.941Z,6.27
2018-01-21T04:34:57.403Z,6.50
2018-01-21T04:37:24.913Z,12.50
2018-01-21T04:39:52.338Z,6.73
2018-01-21T04:42:19.793Z,11.60
2018-01-21T04:44:47.256Z,5.00
2018-01-21T04:47:14.714Z,8.53
2018-01-21T04:49:42.166Z,9.17
2018-01-21T04:52:09.621Z,2.40
2018-01-21T04:54:37.091Z,3.63
2018-01-21T04:57:04.546Z,3.30
2018-01-21T04:59:32.025Z,5.70
2018-01-21T05:01:59.502Z,8.43
2018-01-21T05:04:26.962Z,3.40
2018-01-21T05:06:54.410Z,5.33
2018-01-21T05:09:21.882Z,2.60
2018-01-21T05:11:49.335Z,4.27
2018-01-21T05:14:16.814Z,5.60
2018-01-21T05:16:44.285Z,5.90
2018-01-21T05:19:11.746Z,2.73
2018-01-21T05:21:39.201Z,5.07
2018-01-21T05:24:06.679Z,1.50
2018-01-21T05:26:34.899Z,6.03
2018-01-21T05:29:02.358Z,2.67
2018-01-21T05:31:29.826Z,7.30
2018-01-21T05:33:57.282Z,4.93
2018-01-21T05:36:24.738Z,4.97
2018-01-21T05:38:52.253Z,6.20
2018-01-21T05:41:19.669Z,1.20
2018-01-21T05:43:47.128Z,3.63
2018-01-21T05:46:14.594Z,6.73
2018-01-21T05:48:42.047Z,5.00
2018-01-21T05:51:09.502Z,2.10
2018-01-21T05:53:36.977Z,3.50
2018-01-21T05:56:05.189Z,6.90
2018-01-21T05:58:32.664Z,3.93
2018-01-21T06:01:00.151Z,3.90
2018-01-21T06:03:27.604Z,3.37
2018-01-21T06:05:55.079Z,4.50
2018-01-21T06:08:23.307Z,2.80
2018-01-21T06:10:50.770Z,4.67
2018-01-21T06:13:18.234Z,3.90
2018-01-21T06:15:45.713Z,8.90
2018-01-21T06:18:13.172Z,12.47
2018-01-21T06:20:40.626Z,5.50
2018-01-21T06:23:08.094Z,9.57
2018-01-21T06:25:36.314Z,4.37
2018-01-21T06:28:03.789Z,6.50
2018-01-21T06:30:31.250Z,5.17
2018-01-21T06:32:58.719Z,6.03
2018-01-21T06:35:26.162Z,4.33
2018-01-21T06:37:53.635Z,0.93
2018-01-21T06:40:21.088Z,2.43
2018-01-21T06:42:48.550Z,1.73
2018-01-21T06:45:16.031Z,10.37
2018-01-21T06:47:43.502Z,10.70
2018-01-21T06:50:10.952Z,9.23
2018-01-21T06:52:39.190Z,8.10
2018-01-21T06:55:06.660Z,8.53
2018-01-21T06:57:34.105Z,2.20
2018-01-21T07:00:01.570Z,5.50
2018-01-21T07:02:29.034Z,5.20
2018-01-21T07:04:56.478Z,6.77
2018-01-21T07:07:23.951Z,3.90
2018-01-21T07:09:52.166Z,7.33
2018-01-21T07:12:19.622Z,5.30
2018-01-21T07:14:47.081Z,4.37
2018-01-21T07:17:14.581Z,4.00
2018-01-21T07:19:42.047Z,11.77
2018-01-21T07:22:10.283Z,2.27
2018-01-21T07:24:37.759Z,4.90
2018-01-21T07:27:05.223Z,6.40
2018-01-21T07:29:32.695Z,6.30
2018-01-21T07:32:00.928Z,7.50
2018-01-21T07:34:29.154Z,3.70
2018-01-21T07:36:57.377Z,5.43
2018-01-21T07:39:25.027Z,5.47
2018-01-21T07:41:52.478Z,10.40
2018-01-21T07:44:19.934Z,9.23
2018-01-21T07:46:47.414Z,12.53
2018-01-21T07:49:14.876Z,9.80
2018-01-21T07:51:43.094Z,18.03
2018-01-21T07:54:11.318Z,9.00
2018-01-21T07:56:38.783Z,5.57
2018-01-21T07:59:06.237Z,8.20
2018-01-21T08:04:07.765Z,5.13
2018-01-21T08:06:35.262Z,6.60
2018-01-21T08:09:03.222Z,6.40
2018-01-21T08:11:30.945Z,8.70
2018-01-21T08:13:58.426Z,11.67
2018-01-21T08:16:25.996Z,13.30
2018-01-21T08:18:53.450Z,7.40
2018-01-21T08:21:20.954Z,5.43
2018-01-21T08:23:48.413Z,7.57
2018-01-21T08:26:16.670Z,12.43
2018-01-21T08:28:44.258Z,5.00
2018-01-21T08:31:12.526Z,11.93
2018-01-21T08:33:39.997Z,3.20
2018-01-21T08:36:13.910Z,7.57
2018-01-21T08:38:47.115Z,14.53
2018-01-21T08:41:20.375Z,9.03
2018-01-21T08:43:48.592Z,8.20
2018-01-21T08:46:16.141Z,9.40
2018-01-21T08:48:43.607Z,8.90
2018-01-21T08:51:11.063Z,9.93
2018-01-21T08:53:38.523Z,15.87
2018-01-21T08:56:05.991Z,11.90
2018-01-21T08:58:33.458Z,18.13
2018-01-21T09:01:00.918Z,6.00
2018-01-21T09:03:28.401Z,13.10
2018-01-21T09:05:56.618Z,5.83
2018-01-21T09:08:24.075Z,6.27
2018-01-21T09:10:51.538Z,8.37
2018-01-21T09:13:18.998Z,2.87
2018-01-21T09:15:46.446Z,9.87
2018-01-21T09:18:13.943Z,9.27
2018-01-21T09:20:41.409Z,8.27
2018-01-21T09:23:08.858Z,6.80
2018-01-21T09:25:36.323Z,6.13
2018-01-21T09:28:03.770Z,7.10
2018-01-21T09:30:31.234Z,4.23
2018-01-21T09:32:58.718Z,7.60
2018-01-21T09:35:26.207Z,7.47
2018-01-21T09:37:53.662Z,6.90
2018-01-21T09:40:21.121Z,6.13
2018-01-21T09:42:48.582Z,4.77
2018-01-21T09:45:16.050Z,6.33
2018-01-21T09:47:43.538Z,10.43
2018-01-21T09:50:11.778Z,3.63
2018-01-21T09:52:39.244Z,6.43
2018-01-21T09:55:07.544Z,7.30
2018-01-21T09:57:35.006Z,12.00
2018-01-21T10:00:03.226Z,16.93
2018-01-21T10:02:30.674Z,3.53
2018-01-21T10:04:58.137Z,6.33
2018-01-21T10:07:25.677Z,10.97
2018-01-21T10:09:53.131Z,15.30
2018-01-21T10:12:21.355Z,5.87
2018-01-21T10:14:48.806Z,2.30
2018-01-21T10:17:16.258Z,8.77
2018-01-21T10:19:43.718Z,6.17
2018-01-21T10:22:11.187Z,13.73
2018-01-21T10:24:39.511Z,10.10
2018-01-21T10:27:06.983Z,8.70
2018-01-21T10:29:34.443Z,13.80
2018-01-21T10:32:01.895Z,4.23
2018-01-21T10:34:29.358Z,5.23
2018-01-21T10:36:56.806Z,5.63
2018-01-21T10:39:24.256Z,4.03
2018-01-21T10:41:51.726Z,6.83
2018-01-21T10:44:19.170Z,2.93
2018-01-21T10:46:46.634Z,5.70
2018-01-21T10:49:14.113Z,4.93
2018-01-21T10:51:41.570Z,9.83
2018-01-21T10:54:09.025Z,8.23
2018-01-21T10:56:36.515Z,13.10
2018-01-21T10:59:03.958Z,4.53
2018-01-21T11:01:31.413Z,2.77
2018-01-21T11:03:58.892Z,10.80
2018-01-21T11:06:26.349Z,8.27
2018-01-21T11:08:53.814Z,6.43
2018-01-21T11:11:22.047Z,10.13
2018-01-21T11:13:49.512Z,8.93
2018-01-21T11:16:16.977Z,5.67
2018-01-21T11:18:45.195Z,2.67
2018-01-21T11:21:12.638Z,6.10
2018-01-21T11:23:40.883Z,4.43
2018-01-21T11:26:08.334Z,4.73
2018-01-21T11:28:35.791Z,8.57
2018-01-21T11:31:03.255Z,7.13
2018-01-21T11:33:30.702Z,5.27
2018-01-21T11:35:58.163Z,16.57
2018-01-21T11:38:25.662Z,2.33
2018-01-21T11:40:53.120Z,5.63
2018-01-21T11:43:20.609Z,4.43
2018-01-21T11:45:48.071Z,2.33
2018-01-21T11:48:15.531Z,2.60
2018-01-21T11:50:42.989Z,5.83
2018-01-21T11:53:10.474Z,7.20
2018-01-21T11:55:37.918Z,7.83
2018-01-21T11:58:05.398Z,4.03
2018-01-21T12:00:32.856Z,3.93
2018-01-21T12:03:01.066Z,8.30
2018-01-21T12:05:28.529Z,8.80
2018-01-21T12:07:55.983Z,7.93
2018-01-21T12:10:23.430Z,5.13
2018-01-21T12:12:50.886Z,7.90
2018-01-21T12:15:18.355Z,10.10
2018-01-21T12:17:45.810Z,5.87
2018-01-21T12:20:13.264Z,7.93
2018-01-21T12:22:40.816Z,4.80
2018-01-21T12:25:08.259Z,6.07
2018-01-21T12:27:35.706Z,3.37
2018-01-21T12:30:03.930Z,4.37
2018-01-21T12:32:31.389Z,6.57
2018-01-21T12:34:58.844Z,7.87
2018-01-21T12:37:26.327Z,5.13
2018-01-21T12:39:53.807Z,3.17
2018-01-21T12:42:22.025Z,3.00
2018-01-21T12:44:49.486Z,9.43
2018-01-21T12:47:16.943Z,5.40
2018-01-21T12:49:44.402Z,5.13
2018-01-21T12:52:11.861Z,5.37
2018-01-21T12:54:39.321Z,4.67
2018-01-21T12:57:06.775Z,11.80
2018-01-21T12:59:34.252Z,4.70
2018-01-21T13:02:01.702Z,8.80
2018-01-21T13:04:29.159Z,8.47
2018-01-21T13:06:56.627Z,6.50
2018-01-21T13:09:24.088Z,10.37
2018-01-21T13:11:52.307Z,9.20
2018-01-21T13:14:19.797Z,2.77
2018-01-21T13:16:47.261Z,2.30
2018-01-21T13:19:14.710Z,3.10
2018-01-21T13:21:42.171Z,2.73
2018-01-21T13:24:09.627Z,3.50
2018-01-21T13:26:37.131Z,3.93
2018-01-21T13:29:04.599Z,2.10
2018-01-21T13:31:32.064Z,3.50
2018-01-21T13:33:59.550Z,7.13
2018-01-21T13:36:27.006Z,5.93
2018-01-21T13:38:54.510Z,4.80
2018-01-21T13:41:21.937Z,3.77
2018-01-21T13:43:49.396Z,4.43
2018-01-21T13:46:16.847Z,3.57
2018-01-21T13:48:45.091Z,4.37
2018-01-21T13:51:12.547Z,5.23
2018-01-21T13:53:40.785Z,4.40
2018-01-21T13:56:08.251Z,8.00
2018-01-21T13:58:35.705Z,1.80
2018-01-21T14:01:03.179Z,14.03
2018-01-21T14:03:30.679Z,4.87
2018-01-21T14:05:58.118Z,4.30
2018-01-21T14:08:25.576Z,7.03
2018-01-21T14:10:53.042Z,6.20
2018-01-21T14:13:20.515Z,6.43
2018-01-21T14:15:47.967Z,9.53
2018-01-21T14:18:15.426Z,7.17
2018-01-21T14:20:43.658Z,6.47
2018-01-21T14:23:11.106Z,5.93
2018-01-21T14:25:38.590Z,5.80
2018-01-21T14:28:06.804Z,7.37
2018-01-21T14:30:35.023Z,2.80
2018-01-21T14:33:02.489Z,3.77
2018-01-21T14:35:29.942Z,15.13
2018-01-21T14:37:57.416Z,15.00
2018-01-21T14:40:24.903Z,4.73
2018-01-21T14:42:53.119Z,4.80
2018-01-21T14:45:25.119Z,8.27
2018-01-21T14:47:53.982Z,6.27
2018-01-21T14:50:21.838Z,3.97
2018-01-21T14:52:49.907Z,5.13
2018-01-21T14:55:17.949Z,6.60
2018-01-21T14:57:46.086Z,9.30
2018-01-21T15:00:13.928Z,7.23
2018-01-21T15:02:42.432Z,16.50
2018-01-21T15:05:11.219Z,8.97
2018-01-21T15:07:39.815Z,6.17
2018-01-21T15:10:08.398Z,13.03
2018-01-21T15:12:36.914Z,7.10
2018-01-21T15:15:04.769Z,15.57
2018-01-21T15:17:32.542Z,6.53
2018-01-21T15:20:00.018Z,13.00
2018-01-21T15:22:27.527Z,8.23
2018-01-21T15:24:57.342Z,9.83
2018-01-21T15:27:25.572Z,6.40
2018-01-21T15:29:53.029Z,10.03
2018-01-21T15:32:20.475Z,8.40
2018-01-21T15:34:47.939Z,11.33
2018-01-21T15:37:15.425Z,17.10
2018-01-21T15:39:42.879Z,6.00
2018-01-21T15:42:10.347Z,12.73
2018-01-21T15:44:37.867Z,9.50
2018-01-21T15:47:05.319Z,8.00
2018-01-21T15:49:32.791Z,20.20
2018-01-21T15:52:00.261Z,12.63
2018-01-21T15:54:27.734Z,15.03
2018-01-21T15:56:55.959Z,15.40
2018-01-21T15:59:23.434Z,14.37
2018-01-21T16:01:50.906Z,15.40
2018-01-21T16:04:18.364Z,10.20
2018-01-21T16:06:45.846Z,9.33
2018-01-21T16:09:14.063Z,8.23
2018-01-21T16:11:41.519Z,19.70
2018-01-21T16:14:08.990Z,12.37
2018-01-21T16:16:36.441Z,13.63
2018-01-21T16:19:03.894Z,16.50
2018-01-21T16:21:31.425Z,15.07
2018-01-21T16:23:59.078Z,13.33
2018-01-21T16:26:26.584Z,10.37
2018-01-21T16:28:54.067Z,13.07
2018-01-21T16:31:22.298Z,20.93
2018-01-21T16:33:49.750Z,16.43
2018-01-21T16:36:33.051Z,17.80
2018-01-21T16:39:01.358Z,12.63
2018-01-21T16:41:28.858Z,75.87
2018-01-21T16:43:56.339Z,66.27
2018-01-21T16:46:24.582Z,125.10
2018-01-21T16:48:53.026Z,69.60
2018-01-21T16:51:20.827Z,99.70
2018-01-21T16:53:48.281Z,31.30
2018-01-21T16:56:15.786Z,21.50
2018-01-21T16:58:43.238Z,14.53
2018-01-21T17:01:10.694Z,19.23
2018-01-21T17:03:38.197Z,19.80
2018-01-21T17:06:05.702Z,18.03
2018-01-21T17:08:33.126Z,13.03
2018-01-21T17:11:00.633Z,12.33
2018-01-21T17:13:28.077Z,11.33
2018-01-21T17:15:55.554Z,14.43
2018-01-21T17:18:23.015Z,16.53
2018-01-21T17:20:50.483Z,23.63
2018-01-21T17:23:17.951Z,27.47
2018-01-21T17:25:45.438Z,19.10
2018-01-21T17:28:13.671Z,19.77
2018-01-21T17:30:41.139Z,16.50
2018-01-21T17:33:08.595Z,16.10
2018-01-21T17:35:36.056Z,19.47
2018-01-21T17:38:03.539Z,18.87
2018-01-21T17:40:30.993Z,21.00
2018-01-21T17:42:58.447Z,16.83
2018-01-21T17:45:25.937Z,21.53
2018-01-21T17:47:53.395Z,22.23
2018-01-21T17:50:20.859Z,26.73
2018-01-21T17:52:48.326Z,31.37
2018-01-21T17:55:15.778Z,21.33
2018-01-21T17:57:43.239Z,24.60
2018-01-21T18:00:10.728Z,24.37
2018-01-21T18:02:38.214Z,20.97
2018-01-21T18:05:05.670Z,25.30
2018-01-21T18:07:33.935Z,24.83
2018-01-21T18:10:01.393Z,21.73
2018-01-21T18:12:28.855Z,25.07
2018-01-21T18:14:57.095Z,21.47
2018-01-21T18:17:24.564Z,24.03
2018-01-21T18:19:52.025Z,24.40
2018-01-21T18:22:19.500Z,33.13
2018-01-21T18:24:47.718Z,33.70
2018-01-21T18:27:15.174Z,26.53
2018-01-21T18:29:42.647Z,33.17
2018-01-21T18:32:10.106Z,27.03
2018-01-21T18:37:12.294Z,35.13
2018-01-21T18:39:39.753Z,33.77
2018-01-21T18:42:07.227Z,33.00
2018-01-21T18:44:34.711Z,31.50
2018-01-21T18:47:02.933Z,26.57
2018-01-21T18:49:30.463Z,31.50
2018-01-21T18:51:57.938Z,40.53
2018-01-21T18:54:25.417Z,30.00
2018-01-21T18:56:52.899Z,36.33
2018-01-21T18:59:20.366Z,30.47
2018-01-21T19:01:48.593Z,37.23
2018-01-21T19:04:16.075Z,26.80
2018-01-21T19:06:43.530Z,35.17
2018-01-21T19:09:11.001Z,33.27
2018-01-21T19:11:38.507Z,32.80
2018-01-21T19:14:05.987Z,29.80
2018-01-21T19:16:33.450Z,26.20
2018-01-21T19:19:00.975Z,35.17
2018-01-21T19:21:28.488Z,33.63
2018-01-21T19:23:55.999Z,36.80
2018-01-21T19:26:23.481Z,46.40
2018-01-21T19:28:51.005Z,33.83
2018-01-21T19:31:18.534Z,40.97
2018-01-21T19:33:46.822Z,45.43
2018-01-21T19:36:14.428Z,37.80
2018-01-21T19:38:41.859Z,40.20
2018-01-21T19:41:24.279Z,56.30
2018-01-21T19:43:51.811Z,50.07
2018-01-21T19:46:20.083Z,48.03
2018-01-21T19:48:47.707Z,51.13
2018-01-21T19:51:15.212Z,46.60
2018-01-21T19:53:42.700Z,46.60
2018-01-21T19:56:11.719Z,52.50
2018-01-21T19:58:39.188Z,39.80
2018-01-21T20:01:07.440Z,43.20
2018-01-21T20:03:35.704Z,44.57
2018-01-21T20:06:03.223Z,44.63
2018-01-21T20:08:30.777Z,37.67
2018-01-21T20:10:58.278Z,41.93
2018-01-21T20:13:25.735Z,39.90
2018-01-21T20:15:53.230Z,33.77
2018-01-21T20:18:21.462Z,34.30
2018-01-21T20:20:49.003Z,38.37
2018-01-21T20:23:16.506Z,31.23
2018-01-21T20:25:44.760Z,28.07
2018-01-21T20:28:13.126Z,29.70
2018-01-21T20:30:40.715Z,33.10
2018-01-21T20:33:08.207Z,25.87
2018-01-21T20:35:35.699Z,24.20
2018-01-21T20:38:03.220Z,21.53
2018-01-21T20:40:30.694Z,23.93
2018-01-21T20:42:59.735Z,26.30
2018-01-21T20:45:28.299Z,25.20
2018-01-21T20:47:59.722Z,19.77
2018-01-21T20:50:28.312Z,18.87
2018-01-21T20:52:57.269Z,24.03
2018-01-21T20:55:26.967Z,17.70
2018-01-21T20:57:56.802Z,30.30
2018-01-21T21:00:27.031Z,21.30
2018-01-21T21:02:55.407Z,23.13
2018-01-21T21:05:26.270Z,25.80
2018-01-21T21:07:54.171Z,22.07
2018-01-21T21:10:22.795Z,29.70
2018-01-21T21:12:53.077Z,22.23
2018-01-21T21:15:22.104Z,24.73
2018-01-21T21:17:53.773Z,28.37
2018-01-21T21:20:21.465Z,23.20
2018-01-21T21:22:49.746Z,22.23
2018-01-21T21:25:17.356Z,23.03
2018-01-21T21:27:44.874Z,22.80
2018-01-21T21:30:12.886Z,20.73
2018-01-21T21:32:40.374Z,17.57
2018-01-21T21:35:08.416Z,25.40
2018-01-21T21:37:35.962Z,22.67
2018-01-21T21:40:03.463Z,19.27
2018-01-21T21:42:31.101Z,18.17
2018-01-21T21:44:58.703Z,15.00
2018-01-21T21:47:26.942Z,14.03
2018-01-21T21:49:54.470Z,13.33
2018-01-21T21:52:22.750Z,14.77
2018-01-21T21:54:50.263Z,12.87
2018-01-21T21:57:17.790Z,18.30
2018-01-21T21:59:45.274Z,18.03
2018-01-21T22:02:12.789Z,18.10
2018-01-21T22:04:40.309Z,16.20
2018-01-21T22:07:07.787Z,18.10
2018-01-21T22:09:36.024Z,19.23
2018-01-21T22:12:03.578Z,19.40
2018-01-21T22:14:31.074Z,19.93
2018-01-21T22:16:59.436Z,18.10
2018-01-21T22:19:27.734Z,17.60
2018-01-21T22:21:56.055Z,22.30
2018-01-21T22:24:23.578Z,16.67
2018-01-21T22:26:51.058Z,15.23
2018-01-21T22:29:18.635Z,19.83
2018-01-21T22:31:46.130Z,20.03
2018-01-21T22:34:14.387Z,16.23
2018-01-21T22:36:41.874Z,22.70
2018-01-21T22:39:10.108Z,18.53
2018-01-21T22:41:37.642Z,20.57
2018-01-21T22:44:05.131Z,24.90
2018-01-21T22:46:32.623Z,23.60
2018-01-21T22:49:00.994Z,17.10
2018-01-21T22:51:29.266Z,23.67
2018-01-21T22:53:57.549Z,21.00
2018-01-21T22:56:25.833Z,24.80
2018-01-21T22:58:54.090Z,18.40
2018-01-21T23:01:22.342Z,23.53
2018-01-21T23:03:49.868Z,22.03
2018-01-21T23:06:17.339Z,22.60
2018-01-21T23:08:44.831Z,21.23
2018-01-21T23:11:13.093Z,30.33
2018-01-21T23:13:40.680Z,26.30
2018-01-21T23:16:08.219Z,24.63
2018-01-21T23:18:35.738Z,27.77
2018-01-21T23:21:03.247Z,20.10
2018-01-21T23:23:31.501Z,27.40
2018-01-21T23:25:59.024Z,19.27
2018-01-21T23:28:26.542Z,18.67
2018-01-21T23:30:53.983Z,27.20
2018-01-21T23:33:21.470Z,29.73
2018-01-21T23:35:48.943Z,24.40
2018-01-21T23:38:16.487Z,21.83
2018-01-21T23:40:44.021Z,26.47
2018-01-21T23:43:11.504Z,24.97
2018-01-21T23:45:39.806Z,20.03
2018-01-21T23:48:08.054Z,26.30
2018-01-21T23:50:35.534Z,24.33
2018-01-21T23:53:03.114Z,28.67
2018-01-21T23:55:30.621Z,30.13
2018-01-21T23:57:58.886Z,29.10
